Time;durP1;ratioP1;P1;durP2;ratioP2;P2;SDS_P1;SDS_P2;PMS_P1;PMS_P2;Temp;Humidity;BMP_temperature;BMP_pressure;BME280_temperature;BME280_humidity;BME280_pressure;Samples;Min_cycle;Max_cycle;Signal;HPM_P1;HPM_P2
2021/08/05 00:02:02;;;;;;;0.33;0.27;;;;;;;15.84;86.23;95151.13;4941144;28;20229;-72
2021/08/05 00:04:31;;;;;;;0.37;0.20;;;;;;;15.77;86.49;95153.09;4946599;28;20214;-72
2021/08/05 00:06:59;;;;;;;1.60;0.30;;;;;;;15.77;86.27;95150.44;4943525;28;20222;-72
2021/08/05 00:09:27;;;;;;;0.20;0.20;;;;;;;15.77;86.50;95153.91;4941067;28;20242;-72
2021/08/05 00:11:55;;;;;;;0.40;0.10;;;;;;;15.77;86.50;95153.09;4938998;28;20310;-73
2021/08/05 00:14:23;;;;;;;0.87;0.30;;;;;;;15.77;86.15;95147.75;4947153;28;20225;-72
2021/08/05 00:16:52;;;;;;;0.23;0.23;;;;;;;15.75;86.34;95155.16;4954133;28;20233;-73
2021/08/05 00:19:20;;;;;;;0.40;0.20;;;;;;;15.74;86.51;95150.91;4947060;28;20225;-73
2021/08/05 00:21:49;;;;;;;1.13;0.20;;;;;;;15.76;86.75;95154.13;4944332;28;20229;-72
2021/08/05 00:24:17;;;;;;;1.60;0.40;;;;;;;15.73;86.30;95149.28;4954033;28;20654;-72
2021/08/05 00:26:45;;;;;;;0.40;0.23;;;;;;;15.73;86.51;95151.94;4955419;28;20234;-73
2021/08/05 00:29:13;;;;;;;0.67;0.13;;;;;;;15.74;86.61;95148.22;4946475;28;20217;-72
2021/08/05 00:31:41;;;;;;;0.20;0.20;;;;;;;15.78;86.23;95149.38;4947841;28;20683;-72
2021/08/05 00:34:08;;;;;;;0.43;0.30;;;;;;;15.80;85.98;95153.44;4948976;28;22189;-73
2021/08/05 00:36:39;;;;;;;0.43;0.43;;;;;;;15.77;86.06;95155.75;4935342;28;20867;-72
2021/08/05 00:39:08;;;;;;;0.20;0.10;;;;;;;15.74;86.28;95148.22;4940021;28;20225;-72
2021/08/05 00:41:36;;;;;;;0.37;0.17;;;;;;;15.72;86.37;95155.59;4940568;28;20231;-72
2021/08/05 00:44:05;;;;;;;1.07;0.20;;;;;;;15.70;86.60;95147.06;4941806;28;20234;-72
2021/08/05 00:46:33;;;;;;;0.20;0.20;;;;;;;15.67;86.90;95158.16;4951617;28;20234;-72
2021/08/05 00:49:02;;;;;;;2.37;0.20;;;;;;;15.62;87.27;95161.47;4957103;28;20222;-72
2021/08/05 00:51:30;;;;;;;2.53;0.47;;;;;;;15.56;87.72;95146.44;4944567;28;20716;-72
2021/08/05 00:53:58;;;;;;;0.40;0.20;;;;;;;15.54;87.80;95151.94;4951853;28;20230;-72
2021/08/05 00:56:28;;;;;;;0.40;0.40;;;;;;;15.56;87.35;95152.56;4940692;28;20261;-72
2021/08/05 00:58:58;;;;;;;0.43;0.43;;;;;;;15.56;87.29;95147.22;4933595;28;20321;-73
2021/08/05 01:01:33;;;;;;;3.37;1.37;;;;;;;15.56;87.72;95141.09;4953152;28;20695;-72
2021/08/05 01:04:02;;;;;;;3.80;0.50;;;;;;;15.54;87.67;95143.97;4931288;28;20270;-72
2021/08/05 01:06:37;;;;;;;0.80;0.40;;;;;;;15.58;87.54;95145.16;4933780;28;20280;-72
2021/08/05 01:09:21;;;;;;;15.37;2.27;;;;;;;15.59;87.53;95146.75;4956204;28;20257;-72
2021/08/05 01:11:58;;;;;;;1.50;0.87;;;;;;;15.59;87.68;95151.28;4954522;28;21645;-72
2021/08/05 01:14:33;;;;;;;1.90;0.63;;;;;;;15.58;87.46;95145.16;4944441;28;20228;-73
2021/08/05 01:17:04;;;;;;;5.07;0.63;;;;;;;15.55;87.65;95139.47;4942969;28;20214;-72
2021/08/05 01:19:38;;;;;;;3.43;0.90;;;;;;;15.52;87.82;95140.72;4956488;28;20226;-72
2021/08/05 01:22:13;;;;;;;0.83;0.30;;;;;;;15.48;87.98;95150.22;4946579;28;20618;-72
2021/08/05 01:24:51;;;;;;;0.30;0.27;;;;;;;15.49;87.89;95135.88;4943673;28;20504;-72
2021/08/05 01:27:22;;;;;;;3.93;0.50;;;;;;;15.49;87.92;95135.88;4943703;28;20323;-72
2021/08/05 01:29:50;;;;;;;0.60;0.30;;;;;;;15.51;87.93;95133.78;4946985;28;20211;-73
2021/08/05 01:32:20;;;;;;;1.50;0.40;;;;;;;15.49;87.91;95129.75;4949683;28;20230;-72
2021/08/05 01:34:48;;;;;;;3.23;0.50;;;;;;;15.49;87.79;95130.56;4946083;28;20223;-72
2021/08/05 01:37:18;;;;;;;2.20;0.73;;;;;;;15.46;87.84;95133.69;4937054;28;20728;-72
2021/08/05 01:39:48;;;;;;;2.67;0.60;;;;;;;15.35;88.26;95131.78;4934609;28;20246;-72
2021/08/05 01:42:19;;;;;;;2.23;0.37;;;;;;;15.38;88.06;95133.19;4944216;28;20258;-72
2021/08/05 01:44:51;;;;;;;1.73;0.60;;;;;;;15.35;88.08;95129.13;4946639;28;20235;-72
2021/08/05 01:47:21;;;;;;;3.13;1.47;;;;;;;15.34;88.16;95127.50;4951765;28;20253;-72
2021/08/05 01:49:51;;;;;;;1.53;0.80;;;;;;;15.34;88.14;95117.66;4933311;28;20263;-72
2021/08/05 01:52:20;;;;;;;0.93;0.50;;;;;;;15.35;88.18;95113.16;4954388;28;20485;-73
2021/08/05 01:54:48;;;;;;;0.87;0.57;;;;;;;15.34;87.90;95122.19;4953627;28;20209;-72
2021/08/05 01:57:16;;;;;;;4.30;1.27;;;;;;;15.34;87.90;95112.34;4948494;28;20306;-72
2021/08/05 01:59:45;;;;;;;1.57;1.47;;;;;;;15.30;88.17;95121.03;4942656;28;20246;-72
2021/08/05 02:02:14;;;;;;;3.30;0.73;;;;;;;15.22;88.24;95121.34;4950029;28;20722;-72
2021/08/05 02:04:56;;;;;;;0.27;0.27;;;;;;;15.26;88.35;95114.50;4939291;28;20248;-72
2021/08/05 02:07:28;;;;;;;0.70;0.70;;;;;;;15.26;88.36;95119.84;4942720;28;20301;-72
2021/08/05 02:10:03;;;;;;;2.50;0.60;;;;;;;15.28;88.12;95120.44;4931687;28;20324;-72
2021/08/05 02:12:34;;;;;;;0.50;0.30;;;;;;;15.33;87.50;95128.53;4939311;28;20928;-72
2021/08/05 02:15:04;;;;;;;15.93;2.63;;;;;;;15.33;87.65;95120.56;4943848;28;20758;-73
2021/08/05 02:17:36;;;;;;;13.10;1.30;;;;;;;15.29;87.52;95120.22;4938647;28;20226;-72
2021/08/05 02:20:08;;;;;;;0.40;0.20;;;;;;;15.31;87.78;95127.97;4941222;28;20239;-72
2021/08/05 02:22:40;;;;;;;0.50;0.40;;;;;;;15.29;88.19;95125.53;4953397;28;20790;-72
2021/08/05 02:25:11;;;;;;;0.40;0.30;;;;;;;15.23;88.07;95120.28;4964074;28;20218;-73
2021/08/05 02:27:42;;;;;;;1.10;0.50;;;;;;;15.10;88.57;95123.16;4955601;28;20226;-72
2021/08/05 02:30:12;;;;;;;0.80;0.30;;;;;;;15.13;88.52;95120.03;4938886;28;20218;-72
2021/08/05 02:32:42;;;;;;;0.30;0.30;;;;;;;15.16;88.55;95119.56;4952494;28;20735;-72
2021/08/05 02:35:13;;;;;;;2.07;0.43;;;;;;;15.19;88.43;95121.78;4943447;28;20224;-72
2021/08/05 02:37:41;;;;;;;2.13;0.20;;;;;;;15.20;88.15;95118.09;4941529;28;20870;-72
2021/08/05 02:40:11;;;;;;;1.37;0.30;;;;;;;15.21;88.11;95122.38;4940191;28;20219;-73
2021/08/05 02:42:39;;;;;;;0.67;0.30;;;;;;;15.17;88.31;95118.53;4948598;28;20245;-72
2021/08/05 02:45:09;;;;;;;0.60;0.60;;;;;;;15.20;88.28;95115.44;4943006;28;20233;-72
2021/08/05 02:47:37;;;;;;;2.20;0.43;;;;;;;15.21;88.09;95111.75;4946413;28;20235;-72
2021/08/05 02:50:08;;;;;;;0.37;0.37;;;;;;;15.22;88.10;95113.34;4944781;28;20721;-72
2021/08/05 02:52:36;;;;;;;0.20;0.10;;;;;;;15.19;88.21;95119.13;4946786;28;20233;-72
2021/08/05 02:55:05;;;;;;;2.60;0.30;;;;;;;15.18;88.09;95122.81;4955185;28;20253;-72
2021/08/05 02:57:35;;;;;;;0.57;0.50;;;;;;;15.18;88.30;95112.19;4946026;28;20285;-72
2021/08/05 03:00:04;;;;;;;0.77;0.27;;;;;;;15.23;88.05;95114.97;4947331;28;20458;-72
2021/08/05 03:02:32;;;;;;;2.87;0.27;;;;;;;15.20;88.10;95118.09;4934102;28;20222;-72
2021/08/05 03:05:00;;;;;;;1.43;0.57;;;;;;;15.18;88.14;95118.34;4943186;28;20226;-73
2021/08/05 03:07:29;;;;;;;1.90;0.80;;;;;;;15.18;88.22;95113.00;4941362;28;20210;-73
2021/08/05 03:09:58;;;;;;;18.93;1.40;;;;;;;15.17;88.26;95115.88;4940560;28;20274;-72
2021/08/05 03:12:26;;;;;;;1.03;0.97;;;;;;;15.16;88.35;95120.38;4941967;28;20708;-71
2021/08/05 03:14:54;;;;;;;0.77;0.77;;;;;;;15.16;88.29;95119.56;4943534;28;20599;-71
2021/08/05 03:17:22;;;;;;;0.47;0.47;;;;;;;15.14;88.41;95124.31;4946938;28;20451;-71
2021/08/05 03:19:50;;;;;;;0.63;0.40;;;;;;;15.15;88.42;95109.97;4928308;28;20231;-72
2021/08/05 03:22:19;;;;;;;0.30;0.30;;;;;;;15.13;88.71;95114.72;4937378;28;20314;-71
2021/08/05 03:24:48;;;;;;;0.50;0.50;;;;;;;15.15;88.58;95108.13;4950318;28;20293;-71
2021/08/05 03:27:16;;;;;;;0.60;0.60;;;;;;;15.12;88.83;95110.44;4950292;28;20723;-71
2021/08/05 03:29:44;;;;;;;0.40;0.40;;;;;;;15.15;88.60;95117.94;4948042;28;20230;-72
2021/08/05 03:32:12;;;;;;;0.80;0.80;;;;;;;15.19;88.42;95111.16;4944833;28;20257;-71
2021/08/05 03:34:40;;;;;;;4.37;0.60;;;;;;;15.21;88.63;95111.75;4939377;28;20222;-71
2021/08/05 03:37:08;;;;;;;0.73;0.73;;;;;;;15.24;88.21;95113.94;4941586;28;20260;-71
2021/08/05 03:39:36;;;;;;;1.00;0.67;;;;;;;15.25;88.44;95118.22;4932990;28;20227;-71
2021/08/05 03:42:05;;;;;;;1.30;1.20;;;;;;;15.28;88.39;95117.78;4943370;28;20667;-72
2021/08/05 03:44:33;;;;;;;1.00;0.43;;;;;;;15.30;88.14;95105.06;4946583;28;20226;-71
2021/08/05 03:47:01;;;;;;;2.17;0.77;;;;;;;15.30;88.31;95105.88;4944716;28;20226;-71
2021/08/05 03:49:30;;;;;;;0.80;0.80;;;;;;;15.30;88.12;95110.38;4950825;28;20257;-71
2021/08/05 03:51:58;;;;;;;6.07;0.90;;;;;;;15.32;88.15;95118.94;4941149;28;20319;-71
2021/08/05 03:54:26;;;;;;;1.07;0.67;;;;;;;15.25;88.39;95102.25;4951545;28;20222;-72
2021/08/05 03:56:54;;;;;;;1.47;1.17;;;;;;;15.31;88.30;95110.16;4960876;28;20233;-72
2021/08/05 03:59:23;;;;;;;0.90;0.90;;;;;;;15.30;88.40;95110.38;4941556;28;20772;-72
2021/08/05 04:01:52;;;;;;;0.83;0.80;;;;;;;15.36;88.06;95115.63;4947083;28;20237;-72
2021/08/05 04:04:20;;;;;;;0.63;0.63;;;;;;;15.38;87.79;95110.06;4943602;28;20292;-72
2021/08/05 04:06:48;;;;;;;2.60;0.90;;;;;;;15.33;87.87;95120.56;4929965;28;20226;-71
2021/08/05 04:09:16;;;;;;;2.57;1.10;;;;;;;15.29;88.07;95112.22;4938749;28;20217;-72
2021/08/05 04:11:44;;;;;;;4.13;1.57;;;;;;;15.23;88.52;95121.09;4942344;28;20237;-71
2021/08/05 04:14:12;;;;;;;0.70;0.63;;;;;;;15.23;88.55;95109.66;4942138;28;20214;-71
2021/08/05 04:16:41;;;;;;;1.23;0.97;;;;;;;15.29;88.28;95106.09;4915407;28;20488;-71
2021/08/05 04:19:09;;;;;;;0.57;0.57;;;;;;;15.32;88.33;95103.78;4964519;28;20599;-71
2021/08/05 04:21:37;;;;;;;1.70;0.50;;;;;;;15.34;88.32;95116.84;4931590;28;20278;-72
2021/08/05 04:24:05;;;;;;;1.83;0.70;;;;;;;15.33;88.39;95109.94;4939545;28;20285;-71
2021/08/05 04:26:33;;;;;;;1.40;1.20;;;;;;;15.35;88.29;95103.34;4947084;28;20222;-71
2021/08/05 04:29:01;;;;;;;1.70;1.60;;;;;;;15.38;87.90;95102.09;4939161;28;20234;-71
2021/08/05 04:31:29;;;;;;;1.90;0.87;;;;;;;15.34;88.21;95103.56;4944129;28;20254;-71
2021/08/05 04:33:59;;;;;;;0.97;0.90;;;;;;;15.31;88.05;95104.03;4943701;28;20708;-72
2021/08/05 04:36:26;;;;;;;0.93;0.93;;;;;;;15.26;88.45;95110.00;4943580;28;20221;-71
2021/08/05 04:38:55;;;;;;;0.63;0.63;;;;;;;15.32;88.04;95113.63;4943177;28;20225;-72
2021/08/05 04:41:23;;;;;;;1.00;0.83;;;;;;;15.30;88.17;95115.69;4944101;28;20263;-71
2021/08/05 04:43:51;;;;;;;0.60;0.60;;;;;;;15.31;88.19;95117.31;4944365;28;20791;-71
2021/08/05 04:46:19;;;;;;;0.83;0.83;;;;;;;15.35;88.16;95113.16;4938254;28;20502;-71
2021/08/05 04:48:48;;;;;;;0.80;0.80;;;;;;;15.35;88.09;95108.66;4951341;28;20226;-71
2021/08/05 04:51:17;;;;;;;1.93;1.03;;;;;;;15.35;88.09;95113.16;4937673;28;20233;-71
2021/08/05 04:53:45;;;;;;;1.40;1.27;;;;;;;15.34;88.07;95111.53;4945580;28;20225;-71
2021/08/05 04:56:13;;;;;;;1.77;0.93;;;;;;;15.31;88.46;95106.69;4949495;28;20317;-71
2021/08/05 04:58:41;;;;;;;2.30;0.63;;;;;;;15.34;88.14;95106.22;4945573;28;20222;-70
2021/08/05 05:01:10;;;;;;;1.93;0.80;;;;;;;15.32;88.17;95103.00;4947722;28;20346;-68
2021/08/05 05:03:38;;;;;;;0.60;0.60;;;;;;;15.29;88.31;95108.78;4957482;28;20225;-68
2021/08/05 05:06:06;;;;;;;2.00;1.80;;;;;;;15.29;88.18;95103.44;4938201;28;20242;-68
2021/08/05 05:08:36;;;;;;;1.10;0.80;;;;;;;15.30;88.37;95105.88;4941522;28;20230;-68
2021/08/05 05:11:08;;;;;;;1.07;0.73;;;;;;;15.32;88.15;95103.00;4948143;28;20239;-68
2021/08/05 05:13:37;;;;;;;1.63;0.50;;;;;;;15.24;88.55;95096.13;4948053;28;20675;-68
2021/08/05 05:16:05;;;;;;;2.40;0.70;;;;;;;15.21;88.80;95098.44;4949000;28;20229;-68
2021/08/05 05:18:34;;;;;;;1.03;1.03;;;;;;;15.10;88.77;95097.38;4945602;28;20802;-66
2021/08/05 05:21:02;;;;;;;1.60;0.90;;;;;;;14.96;89.07;95104.69;4935580;28;20231;-67
2021/08/05 05:23:31;;;;;;;2.73;1.70;;;;;;;14.98;89.37;95102.63;4944167;28;20588;-67
2021/08/05 05:26:01;;;;;;;3.23;1.03;;;;;;;14.96;89.50;95099.38;4950217;28;20230;-66
2021/08/05 05:28:30;;;;;;;0.80;0.80;;;;;;;14.93;89.97;95099.84;4943379;28;20226;-67
2021/08/05 05:30:59;;;;;;;4.90;1.27;;;;;;;14.92;89.67;95097.41;4941226;28;20234;-67
2021/08/05 05:33:27;;;;;;;1.10;0.90;;;;;;;15.03;89.51;95100.13;4957584;28;20313;-67
2021/08/05 05:35:56;;;;;;;1.40;1.40;;;;;;;14.90;90.21;95105.59;4949102;28;20766;-67
2021/08/05 05:38:24;;;;;;;3.23;1.20;;;;;;;15.03;89.72;95100.13;4938376;28;22036;-67
2021/08/05 05:40:53;;;;;;;1.23;0.97;;;;;;;15.05;89.56;95092.72;4935748;28;20219;-67
2021/08/05 05:43:22;;;;;;;4.00;1.40;;;;;;;15.19;89.40;95097.88;4936573;28;20481;-67
2021/08/05 05:45:50;;;;;;;1.60;0.90;;;;;;;15.07;89.35;95101.28;4948552;28;20313;-66
2021/08/05 05:48:18;;;;;;;1.60;1.50;;;;;;;15.08;89.19;95102.09;4942250;28;20234;-67
2021/08/05 05:50:47;;;;;;;2.80;1.03;;;;;;;15.21;89.01;95104.56;4945037;28;20751;-66
2021/08/05 05:53:15;;;;;;;1.30;1.03;;;;;;;15.24;89.43;95093.47;4936156;28;20241;-67
2021/08/05 05:55:44;;;;;;;0.70;0.70;;;;;;;15.28;88.93;95096.53;4949443;28;20481;-67
2021/08/05 05:58:12;;;;;;;1.33;1.23;;;;;;;15.37;89.30;95103.13;4942222;28;20225;-66
2021/08/05 06:00:41;;;;;;;2.00;1.77;;;;;;;15.47;89.31;95099.91;4932882;28;20327;-68
2021/08/05 06:03:09;;;;;;;1.33;1.33;;;;;;;15.57;88.77;95106.28;4937479;28;20257;-67
2021/08/05 06:05:38;;;;;;;1.90;1.63;;;;;;;15.52;89.45;95103.50;4950807;28;20269;-67
2021/08/05 06:08:06;;;;;;;1.83;1.20;;;;;;;15.64;88.32;95111.56;4938301;28;20222;-67
2021/08/05 06:10:34;;;;;;;2.07;1.90;;;;;;;15.56;88.83;95110.00;4951300;28;20771;-68
2021/08/05 06:13:02;;;;;;;3.00;1.30;;;;;;;15.60;88.97;95110.34;4956099;28;20226;-67
2021/08/05 06:15:30;;;;;;;4.90;1.60;;;;;;;15.76;88.26;95103.59;4936778;28;20235;-67
2021/08/05 06:18:00;;;;;;;2.07;1.50;;;;;;;15.90;88.45;95110.28;4937476;28;20222;-67
2021/08/05 06:20:28;;;;;;;2.10;1.70;;;;;;;15.82;88.24;95113.31;4948616;28;20305;-67
2021/08/05 06:22:56;;;;;;;3.47;1.27;;;;;;;15.75;88.46;95112.59;4939598;28;20317;-67
2021/08/05 06:25:23;;;;;;;1.17;1.13;;;;;;;15.64;89.14;95109.69;4939897;28;20448;-68
2021/08/05 06:27:52;;;;;;;1.20;1.20;;;;;;;15.94;88.44;95106.16;4927954;28;20396;-67
2021/08/05 06:30:20;;;;;;;4.13;1.53;;;;;;;16.04;88.06;95109.03;4928985;28;20223;-67
2021/08/05 06:32:50;;;;;;;3.33;2.20;;;;;;;16.13;88.26;95104.19;4949083;28;20715;-67
2021/08/05 06:35:20;;;;;;;1.57;1.20;;;;;;;16.18;88.08;95113.09;4951754;28;20286;-67
2021/08/05 06:37:48;;;;;;;1.00;1.00;;;;;;;16.25;87.26;95106.84;4946266;28;20233;-67
2021/08/05 06:40:17;;;;;;;2.30;2.10;;;;;;;16.37;86.35;95105.00;4965712;28;20236;-68
2021/08/05 06:42:46;;;;;;;0.97;0.97;;;;;;;15.89;87.51;95114.00;4951490;28;20699;-68
2021/08/05 06:45:14;;;;;;;2.93;1.70;;;;;;;16.10;88.43;95110.78;4947699;28;20284;-68
2021/08/05 06:47:46;;;;;;;1.93;1.43;;;;;;;16.28;87.70;95109.84;4954266;28;20680;-68
2021/08/05 06:50:16;;;;;;;1.10;1.10;;;;;;;16.17;87.84;95116.78;4948388;28;20222;-68
2021/08/05 06:52:47;;;;;;;1.20;1.10;;;;;;;16.21;88.16;95112.63;4947391;28;20226;-68
2021/08/05 06:55:15;;;;;;;1.37;1.30;;;;;;;16.09;87.37;95114.50;4943825;28;20669;-68
2021/08/05 06:57:43;;;;;;;1.63;1.10;;;;;;;16.48;87.37;95117.47;4929405;28;20227;-67
2021/08/05 07:00:13;;;;;;;1.80;1.70;;;;;;;16.50;87.04;95108.19;4948546;28;20244;-68
2021/08/05 07:02:41;;;;;;;1.90;1.47;;;;;;;16.57;86.84;95113.41;4943173;28;20762;-67
2021/08/05 07:05:10;;;;;;;1.70;1.60;;;;;;;16.74;85.57;95119.66;4941596;28;20659;-67
2021/08/05 07:07:40;;;;;;;1.60;1.53;;;;;;;16.80;85.40;95117.91;4944829;28;20226;-68
2021/08/05 07:10:11;;;;;;;2.13;1.50;;;;;;;16.76;85.24;95114.91;4938941;28;20306;-67
2021/08/05 07:12:39;;;;;;;1.17;1.07;;;;;;;16.78;85.21;95120.81;4927694;28;20227;-67
2021/08/05 07:15:08;;;;;;;2.00;1.90;;;;;;;16.63;86.26;95114.31;4952538;28;20301;-67
2021/08/05 07:17:40;;;;;;;1.77;1.67;;;;;;;16.76;86.29;95114.09;4940165;28;20438;-68
2021/08/05 07:20:09;;;;;;;2.00;1.30;;;;;;;16.67;86.43;95110.16;4962784;28;20295;-67
2021/08/05 07:22:38;;;;;;;3.03;2.73;;;;;;;16.68;86.59;95112.59;4949744;28;20274;-67
2021/08/05 07:25:07;;;;;;;1.80;1.70;;;;;;;16.71;85.93;95116.66;4942814;28;20226;-68
2021/08/05 07:27:37;;;;;;;2.40;2.30;;;;;;;16.98;85.78;95117.72;4937738;28;20515;-68
2021/08/05 07:30:08;;;;;;;1.97;1.67;;;;;;;17.01;86.09;95116.47;4944448;28;20596;-67
2021/08/05 07:32:36;;;;;;;1.37;1.27;;;;;;;17.27;84.94;95107.88;4953019;28;20647;-67
2021/08/05 07:35:05;;;;;;;2.13;2.03;;;;;;;17.48;83.84;95110.94;4945485;28;20262;-66
2021/08/05 07:37:34;;;;;;;2.20;2.00;;;;;;;17.62;83.73;95113.03;4934997;28;20811;-68
2021/08/05 07:40:02;;;;;;;2.17;1.97;;;;;;;17.76;83.67;95118.91;4927499;28;20252;-67
2021/08/05 07:42:30;;;;;;;3.17;2.97;;;;;;;17.84;82.30;95121.19;4940363;28;20237;-67
2021/08/05 07:44:59;;;;;;;4.53;4.07;;;;;;;18.06;82.28;95117.78;4944437;28;20226;-67
2021/08/05 07:47:28;;;;;;;2.43;2.33;;;;;;;18.21;82.13;95114.53;4946389;28;20866;-67
2021/08/05 07:49:55;;;;;;;2.77;2.57;;;;;;;18.24;82.13;95119.38;4946787;28;20222;-67
2021/08/05 07:52:24;;;;;;;2.63;2.47;;;;;;;18.33;81.22;95104.56;4940037;28;20233;-67
2021/08/05 07:54:55;;;;;;;3.23;3.03;;;;;;;18.33;79.70;95108.03;4958180;28;20703;-67
2021/08/05 07:57:23;;;;;;;3.27;2.40;;;;;;;18.41;79.54;95110.28;4960792;28;20240;-67
2021/08/05 07:59:51;;;;;;;3.07;2.87;;;;;;;18.64;80.39;95108.44;4932685;28;20748;-67
2021/08/05 08:02:21;;;;;;;3.00;2.80;;;;;;;18.71;79.38;95109.13;4952649;28;20237;-67
2021/08/05 08:04:49;;;;;;;1.93;1.83;;;;;;;18.84;79.84;95111.44;4937053;28;20310;-66
2021/08/05 08:07:16;;;;;;;2.67;2.50;;;;;;;19.02;79.10;95108.44;4936862;28;20230;-67
2021/08/05 08:09:44;;;;;;;2.27;2.07;;;;;;;19.37;78.48;95107.19;4936526;28;20231;-67
2021/08/05 08:12:12;;;;;;;8.77;2.57;;;;;;;19.53;77.45;95111.66;4926755;28;20346;-67
2021/08/05 08:14:40;;;;;;;2.37;2.17;;;;;;;19.57;77.80;95112.00;4939194;28;20228;-68
2021/08/05 08:17:08;;;;;;;2.40;2.20;;;;;;;19.54;75.83;95110.56;4952890;28;20230;-68
2021/08/05 08:19:38;;;;;;;2.60;2.40;;;;;;;19.62;76.36;95108.53;4946299;28;20253;-67
2021/08/05 08:22:06;;;;;;;2.53;2.40;;;;;;;19.30;76.34;95111.97;4939370;28;20540;-68
2021/08/05 08:24:34;;;;;;;2.23;2.13;;;;;;;19.41;76.00;95108.31;4947633;28;21124;-68
2021/08/05 08:27:03;;;;;;;2.67;2.57;;;;;;;19.72;74.65;95111.31;4937516;28;20320;-67
2021/08/05 08:29:31;;;;;;;1.70;1.60;;;;;;;19.82;74.76;95114.06;4945567;28;20237;-67
2021/08/05 08:31:59;;;;;;;3.70;3.50;;;;;;;19.52;76.42;95110.03;4949115;28;20272;-67
2021/08/05 08:34:27;;;;;;;7.00;3.30;;;;;;;19.74;75.01;95117.22;4964402;28;20220;-66
2021/08/05 08:36:57;;;;;;;1.87;1.70;;;;;;;20.09;75.04;95109.47;4958663;28;20278;-67
2021/08/05 08:39:25;;;;;;;2.10;2.00;;;;;;;20.26;73.70;95103.16;4934278;28;20230;-67
2021/08/05 08:41:53;;;;;;;2.23;2.13;;;;;;;20.01;75.14;95101.91;4934604;28;21569;-67
2021/08/05 08:44:21;;;;;;;2.50;2.30;;;;;;;19.78;73.61;95107.63;4935725;28;20500;-67
2021/08/05 08:46:50;;;;;;;2.67;2.47;;;;;;;19.85;73.93;95105.56;4933160;28;20233;-67
2021/08/05 08:49:23;;;;;;;2.20;2.10;;;;;;;20.08;74.57;95102.50;4944126;28;20342;-67
2021/08/05 08:51:53;;;;;;;5.87;2.80;;;;;;;20.15;73.12;95103.09;4936203;28;20643;-67
2021/08/05 08:54:23;;;;;;;3.23;3.03;;;;;;;20.15;72.32;95103.09;4947740;28;20282;-67
2021/08/05 08:56:53;;;;;;;2.20;2.10;;;;;;;20.49;70.70;95100.13;4947905;28;20230;-67
2021/08/05 08:59:22;;;;;;;5.63;3.20;;;;;;;20.80;70.32;95097.59;4949025;28;20277;-67
2021/08/05 09:01:50;;;;;;;5.83;2.53;;;;;;;20.80;71.85;95085.00;4955056;28;20226;-67
2021/08/05 09:04:20;;;;;;;2.10;2.00;;;;;;;20.46;71.81;95092.59;4950219;28;20230;-67
2021/08/05 09:06:49;;;;;;;2.77;2.57;;;;;;;20.24;70.69;95084.66;4941782;28;20227;-67
2021/08/05 09:09:17;;;;;;;2.40;2.20;;;;;;;20.34;72.17;95094.66;4947536;28;20309;-66
2021/08/05 09:11:46;;;;;;;2.23;2.13;;;;;;;20.69;70.53;95092.19;4924607;28;20501;-66
2021/08/05 09:14:14;;;;;;;2.60;2.40;;;;;;;20.87;70.71;95092.81;4927141;28;20218;-67
2021/08/05 09:16:42;;;;;;;2.10;1.90;;;;;;;21.02;70.68;95100.91;4945062;28;20225;-67
2021/08/05 09:19:13;;;;;;;3.60;3.37;;;;;;;21.15;69.97;95092.38;4952918;28;20237;-67
2021/08/05 09:21:51;;;;;;;2.33;2.23;;;;;;;21.11;69.55;95095.84;4943022;28;20261;-67
2021/08/05 09:24:28;;;;;;;2.00;1.90;;;;;;;20.74;69.12;95089.53;4956414;28;20226;-67
2021/08/05 09:26:59;;;;;;;2.80;2.60;;;;;;;20.45;69.09;95094.47;4944167;28;20533;-67
2021/08/05 09:29:27;;;;;;;3.00;2.80;;;;;;;20.76;70.38;95091.13;4941693;28;20688;-67
2021/08/05 09:32:00;;;;;;;7.03;2.10;;;;;;;20.76;70.71;95091.97;4941533;28;20218;-67
2021/08/05 09:34:34;;;;;;;1.87;1.77;;;;;;;20.40;70.13;95085.59;4940034;28;20278;-67
2021/08/05 09:37:05;;;;;;;2.00;1.90;;;;;;;20.01;70.88;95090.38;4942286;28;20244;-67
2021/08/05 09:39:35;;;;;;;1.63;1.47;;;;;;;20.34;71.52;95094.66;4941111;28;20230;-67
2021/08/05 09:42:06;;;;;;;2.30;1.50;;;;;;;20.71;70.89;95095.41;4941267;28;20229;-67
2021/08/05 09:44:45;;;;;;;1.83;1.73;;;;;;;20.89;71.00;95088.78;4944491;28;20516;-67
2021/08/05 09:47:14;;;;;;;0.90;0.90;;;;;;;21.14;67.86;95082.72;4938645;28;20230;-67
2021/08/05 09:49:53;;;;;;;0.63;0.63;;;;;;;21.26;68.12;95086.00;4943402;28;20698;-67
2021/08/05 09:52:28;;;;;;;1.43;0.97;;;;;;;21.12;66.61;95087.56;4943762;28;20299;-67
2021/08/05 09:54:57;;;;;;;2.43;1.03;;;;;;;21.61;66.86;95087.13;4927909;28;20226;-67
2021/08/05 09:57:28;;;;;;;1.07;0.77;;;;;;;21.45;68.14;95085.50;4943735;28;20301;-67
2021/08/05 09:59:59;;;;;;;0.73;0.73;;;;;;;21.36;67.35;95079.84;4938812;28;20233;-67
2021/08/05 10:02:39;;;;;;;0.77;0.77;;;;;;;21.66;66.04;95078.28;4938920;28;20233;-67
2021/08/05 10:05:12;;;;;;;0.70;0.70;;;;;;;21.63;65.36;95074.25;4955398;28;20248;-68
2021/08/05 10:07:42;;;;;;;0.90;0.90;;;;;;;22.15;64.46;95075.91;4935634;28;20276;-67
2021/08/05 10:10:12;;;;;;;1.20;1.13;;;;;;;21.44;66.10;95076.63;4934817;28;20245;-67
2021/08/05 10:12:50;;;;;;;1.03;0.93;;;;;;;21.55;66.11;95072.09;4929941;28;20229;-66
2021/08/05 10:15:19;;;;;;;0.77;0.77;;;;;;;21.52;65.61;95073.44;4943673;28;20222;-67
2021/08/05 10:17:52;;;;;;;1.60;1.10;;;;;;;21.23;66.56;95069.59;4938451;28;20717;-67
2021/08/05 10:20:22;;;;;;;0.10;0.10;;;;;;;21.20;64.62;95064.75;4940867;28;20247;-67
2021/08/05 10:22:52;;;;;;;0.70;0.70;;;;;;;21.06;65.28;95059.09;4933866;28;20313;-67
2021/08/05 10:25:25;;;;;;;0.50;0.40;;;;;;;21.64;64.88;95059.75;4949829;28;20218;-67
2021/08/05 10:27:56;;;;;;;0.63;0.63;;;;;;;21.77;66.38;95056.53;4939826;28;20985;-67
2021/08/05 10:30:25;;;;;;;0.73;0.60;;;;;;;21.33;66.47;95060.78;4948239;28;20233;-67
2021/08/05 10:32:56;;;;;;;0.83;0.60;;;;;;;21.67;66.70;95051.16;4942526;28;20254;-67
2021/08/05 10:35:25;;;;;;;0.40;0.40;;;;;;;22.22;66.53;95054.94;4938383;28;20218;-66
2021/08/05 10:37:53;;;;;;;0.80;0.80;;;;;;;22.07;64.31;95047.69;4933476;28;20250;-67
2021/08/05 10:40:22;;;;;;;0.60;0.60;;;;;;;22.43;63.19;95053.78;4939009;28;20306;-66
2021/08/05 10:42:52;;;;;;;0.70;0.70;;;;;;;22.84;63.23;95050.97;4934014;28;20305;-67
2021/08/05 10:45:22;;;;;;;0.43;0.43;;;;;;;23.05;62.52;95042.84;4936070;28;20288;-67
2021/08/05 10:47:53;;;;;;;0.50;0.50;;;;;;;23.40;61.45;95034.53;4947962;28;20849;-67
2021/08/05 10:50:24;;;;;;;1.37;0.50;;;;;;;23.79;60.17;95033.75;4926544;28;20300;-66
2021/08/05 10:52:55;;;;;;;0.47;0.47;;;;;;;24.26;60.33;95026.84;4930460;28;20227;-67
2021/08/05 10:55:30;;;;;;;0.70;0.70;;;;;;;23.90;59.27;95035.28;4940945;28;20214;-67
2021/08/05 10:58:19;;;;;;;0.70;0.70;;;;;;;24.21;59.11;95024.19;4939760;28;20215;-66
2021/08/05 11:01:01;;;;;;;2.53;0.43;;;;;;;24.30;59.21;95019.78;4947708;28;20719;-67
2021/08/05 11:03:48;;;;;;;0.50;0.50;;;;;;;24.16;59.58;95022.38;4939520;28;20230;-67
2021/08/05 11:06:31;;;;;;;3.17;0.53;;;;;;;23.81;59.95;95023.50;4935516;28;20219;-67
2021/08/05 11:09:28;;;;;;;0.50;0.50;;;;;;;22.74;61.58;95021.41;4935209;28;20772;-67
2021/08/05 11:11:57;;;;;;;0.93;0.57;;;;;;;22.16;62.52;95023.75;4933580;28;20234;-67
2021/08/05 11:14:39;;;;;;;1.10;1.10;;;;;;;22.07;63.44;95020.00;4954736;28;20219;-66
2021/08/05 11:17:09;;;;;;;0.47;0.47;;;;;;;22.31;62.03;95021.03;4965240;28;20368;-66
2021/08/05 11:19:41;;;;;;;0.80;0.50;;;;;;;22.61;61.92;95012.06;4958871;28;20218;-67
2021/08/05 11:22:50;;;;;;;0.60;0.60;;;;;;;23.21;62.06;95012.84;4947167;28;20230;-67
2021/08/05 11:25:19;;;;;;;0.77;0.77;;;;;;;23.83;59.78;94999.75;4940452;28;20233;-67
2021/08/05 11:28:20;;;;;;;0.77;0.60;;;;;;;23.55;59.23;95015.59;4930102;28;20251;-67
2021/08/05 11:30:54;;;;;;;2.10;0.47;;;;;;;23.61;57.87;95007.50;4930735;28;20353;-67
2021/08/05 11:33:53;;;;;;;0.80;0.80;;;;;;;23.37;58.29;95005.47;4922009;28;20609;-67
2021/08/05 11:36:24;;;;;;;0.67;0.67;;;;;;;24.15;59.40;94998.41;4940844;28;20229;-68
2021/08/05 11:38:57;;;;;;;0.87;0.87;;;;;;;24.48;58.53;94994.81;4939362;28;20778;-67
2021/08/05 11:41:44;;;;;;;0.53;0.47;;;;;;;24.60;54.69;94995.22;4937069;28;20290;-67
2021/08/05 11:44:27;;;;;;;2.20;1.37;;;;;;;23.92;58.74;94991.88;4935361;28;20226;-68
2021/08/05 11:47:16;;;;;;;0.47;0.47;;;;;;;23.84;59.35;94987.91;4933583;28;20231;-68
2021/08/05 11:49:47;;;;;;;1.23;0.50;;;;;;;24.43;56.11;94986.00;4927370;28;20230;-67